West Chenango, New York
Current Conditions -  °F | °C
As of 4:53 AM on Sunday 25 Jan 2015 (Local Time) from KBGM Reporting Station
Light Snow Light Snow  
Wind Chill: 18°   Ceiling: 1500
Heat Index: 29°   Visibility: 8mi
Dew Point: 26°   Wind: 14mph
Humidity: 89%   Direction: 290°WNW
Pressure: 29.52"   Gusts: 25mph
Location:  42.1759°N, 75.9402°W
Report Text: KBGM 250953Z AUTO 29012G22KT 8SM -SN BKN015 BKN021 OVC040 M02/M03 A2952 RMK AO2 UPB22E42FZRAB42E44SNB44 SLP014 P0000 T10171033
Loading
Personal Weather Stations






























Interactive Weather Map New forecast layout! Learn more

10-Day Weather Forecast

Advertisements
Track Severe Weather on mobile